sensor_id;sensor_type;location;lat;lon;timestamp;P1;durP1;ratioP1;P2;durP2;ratioP2
75890;SDS011;64571;47.512;19.054;2023-04-25T00:01:20;4.33;;;1.77;;
75890;SDS011;64571;47.512;19.054;2023-04-25T00:04:24;4.12;;;1.40;;
75890;SDS011;64571;47.512;19.054;2023-04-25T00:07:27;4.45;;;1.55;;
75890;SDS011;64571;47.512;19.054;2023-04-25T00:10:30;4.18;;;1.65;;
75890;SDS011;64571;47.512;19.054;2023-04-25T00:13:33;4.30;;;1.60;;
75890;SDS011;64571;47.512;19.054;2023-04-25T00:16:36;5.17;;;1.90;;
75890;SDS011;64571;47.512;19.054;2023-04-25T00:19:38;4.15;;;1.77;;
75890;SDS011;64571;47.512;19.054;2023-04-25T00:22:41;5.50;;;1.80;;
75890;SDS011;64571;47.512;19.054;2023-04-25T00:25:44;5.53;;;1.70;;
75890;SDS011;64571;47.512;19.054;2023-04-25T00:28:48;4.85;;;2.00;;
75890;SDS011;64571;47.512;19.054;2023-04-25T00:31:50;5.23;;;2.30;;
75890;SDS011;64571;47.512;19.054;2023-04-25T00:34:53;4.55;;;2.17;;
75890;SDS011;64571;47.512;19.054;2023-04-25T00:37:57;5.45;;;1.90;;
75890;SDS011;64571;47.512;19.054;2023-04-25T00:41:00;5.62;;;2.00;;
75890;SDS011;64571;47.512;19.054;2023-04-25T00:44:03;5.70;;;2.17;;
75890;SDS011;64571;47.512;19.054;2023-04-25T00:47:09;5.17;;;2.27;;
75890;SDS011;64571;47.512;19.054;2023-04-25T00:50:13;5.25;;;2.20;;
75890;SDS011;64571;47.512;19.054;2023-04-25T00:53:16;6.18;;;2.20;;
75890;SDS011;64571;47.512;19.054;2023-04-25T00:56:18;6.03;;;2.35;;
75890;SDS011;64571;47.512;19.054;2023-04-25T00:59:22;6.10;;;2.47;;
75890;SDS011;64571;47.512;19.054;2023-04-25T01:02:26;5.03;;;2.00;;
75890;SDS011;64571;47.512;19.054;2023-04-25T01:05:29;6.72;;;2.50;;
75890;SDS011;64571;47.512;19.054;2023-04-25T01:08:32;5.95;;;2.70;;
75890;SDS011;64571;47.512;19.054;2023-04-25T01:11:34;5.78;;;2.58;;
75890;SDS011;64571;47.512;19.054;2023-04-25T01:14:37;4.65;;;2.03;;
75890;SDS011;64571;47.512;19.054;2023-04-25T01:17:40;5.90;;;2.23;;
75890;SDS011;64571;47.512;19.054;2023-04-25T01:20:43;5.70;;;2.62;;
75890;SDS011;64571;47.512;19.054;2023-04-25T01:23:48;4.78;;;2.35;;
75890;SDS011;64571;47.512;19.054;2023-04-25T01:26:51;7.12;;;2.90;;
75890;SDS011;64571;47.512;19.054;2023-04-25T01:29:55;5.53;;;2.50;;
75890;SDS011;64571;47.512;19.054;2023-04-25T01:32:58;6.50;;;2.60;;
75890;SDS011;64571;47.512;19.054;2023-04-25T01:36:03;5.68;;;2.70;;
75890;SDS011;64571;47.512;19.054;2023-04-25T01:39:06;7.10;;;2.92;;
75890;SDS011;64571;47.512;19.054;2023-04-25T01:42:09;6.05;;;2.83;;
75890;SDS011;64571;47.512;19.054;2023-04-25T01:45:12;5.93;;;2.75;;
75890;SDS011;64571;47.512;19.054;2023-04-25T01:48:15;8.40;;;3.10;;
75890;SDS011;64571;47.512;19.054;2023-04-25T01:51:17;5.62;;;2.78;;
75890;SDS011;64571;47.512;19.054;2023-04-25T01:54:20;5.85;;;2.65;;
75890;SDS011;64571;47.512;19.054;2023-04-25T01:57:24;5.72;;;2.60;;
75890;SDS011;64571;47.512;19.054;2023-04-25T02:00:27;6.70;;;2.87;;
75890;SDS011;64571;47.512;19.054;2023-04-25T02:03:31;7.07;;;3.13;;
75890;SDS011;64571;47.512;19.054;2023-04-25T02:06:36;5.62;;;2.70;;
75890;SDS011;64571;47.512;19.054;2023-04-25T02:09:40;5.62;;;2.62;;
75890;SDS011;64571;47.512;19.054;2023-04-25T02:12:46;5.40;;;2.40;;
75890;SDS011;64571;47.512;19.054;2023-04-25T02:15:48;6.05;;;3.00;;
75890;SDS011;64571;47.512;19.054;2023-04-25T02:18:51;9.83;;;2.00;;
75890;SDS011;64571;47.512;19.054;2023-04-25T02:21:55;6.47;;;2.78;;
75890;SDS011;64571;47.512;19.054;2023-04-25T02:24:59;6.57;;;3.00;;
75890;SDS011;64571;47.512;19.054;2023-04-25T02:28:01;5.30;;;2.80;;
75890;SDS011;64571;47.512;19.054;2023-04-25T02:31:04;6.75;;;3.35;;
75890;SDS011;64571;47.512;19.054;2023-04-25T02:34:07;9.20;;;3.00;;
75890;SDS011;64571;47.512;19.054;2023-04-25T02:37:10;6.28;;;2.72;;
75890;SDS011;64571;47.512;19.054;2023-04-25T02:40:12;7.82;;;2.58;;
75890;SDS011;64571;47.512;19.054;2023-04-25T02:43:15;6.20;;;2.40;;
75890;SDS011;64571;47.512;19.054;2023-04-25T02:46:18;6.18;;;2.60;;
75890;SDS011;64571;47.512;19.054;2023-04-25T02:49:40;6.13;;;2.67;;
75890;SDS011;64571;47.512;19.054;2023-04-25T02:52:42;5.32;;;2.12;;
75890;SDS011;64571;47.512;19.054;2023-04-25T02:55:46;5.80;;;2.00;;
75890;SDS011;64571;47.512;19.054;2023-04-25T02:58:49;5.53;;;2.28;;
75890;SDS011;64571;47.512;19.054;2023-04-25T03:01:52;5.37;;;2.50;;
75890;SDS011;64571;47.512;19.054;2023-04-25T03:04:54;7.30;;;2.80;;
75890;SDS011;64571;47.512;19.054;2023-04-25T03:07:57;5.62;;;2.50;;
75890;SDS011;64571;47.512;19.054;2023-04-25T03:11:00;6.25;;;3.17;;
75890;SDS011;64571;47.512;19.054;2023-04-25T03:14:03;5.50;;;2.60;;
75890;SDS011;64571;47.512;19.054;2023-04-25T03:17:06;5.45;;;2.75;;
75890;SDS011;64571;47.512;19.054;2023-04-25T03:20:10;5.57;;;2.47;;
75890;SDS011;64571;47.512;19.054;2023-04-25T03:23:13;6.37;;;2.90;;
75890;SDS011;64571;47.512;19.054;2023-04-25T03:26:16;6.37;;;3.33;;
75890;SDS011;64571;47.512;19.054;2023-04-25T03:29:19;6.57;;;2.35;;
75890;SDS011;64571;47.512;19.054;2023-04-25T03:32:27;5.57;;;2.28;;
75890;SDS011;64571;47.512;19.054;2023-04-25T03:35:29;8.50;;;3.10;;
75890;SDS011;64571;47.512;19.054;2023-04-25T03:38:32;4.32;;;1.58;;
75890;SDS011;64571;47.512;19.054;2023-04-25T03:41:35;8.70;;;2.95;;
75890;SDS011;64571;47.512;19.054;2023-04-25T03:44:38;6.30;;;2.53;;
75890;SDS011;64571;47.512;19.054;2023-04-25T03:47:40;6.82;;;2.60;;
75890;SDS011;64571;47.512;19.054;2023-04-25T03:50:44;6.40;;;2.60;;
75890;SDS011;64571;47.512;19.054;2023-04-25T03:53:47;5.70;;;2.97;;
75890;SDS011;64571;47.512;19.054;2023-04-25T03:56:53;6.75;;;3.55;;
75890;SDS011;64571;47.512;19.054;2023-04-25T03:59:56;8.07;;;2.75;;
75890;SDS011;64571;47.512;19.054;2023-04-25T04:02:59;6.93;;;2.97;;
75890;SDS011;64571;47.512;19.054;2023-04-25T04:06:02;6.63;;;2.83;;
75890;SDS011;64571;47.512;19.054;2023-04-25T04:09:07;5.22;;;2.37;;
75890;SDS011;64571;47.512;19.054;2023-04-25T04:12:13;6.57;;;2.67;;
75890;SDS011;64571;47.512;19.054;2023-04-25T04:15:16;6.53;;;3.08;;
75890;SDS011;64571;47.512;19.054;2023-04-25T04:18:18;6.70;;;3.17;;
75890;SDS011;64571;47.512;19.054;2023-04-25T04:21:21;6.03;;;3.17;;
75890;SDS011;64571;47.512;19.054;2023-04-25T04:24:24;6.10;;;2.97;;
75890;SDS011;64571;47.512;19.054;2023-04-25T04:27:27;5.75;;;2.70;;
75890;SDS011;64571;47.512;19.054;2023-04-25T04:30:32;6.25;;;3.00;;
75890;SDS011;64571;47.512;19.054;2023-04-25T04:33:38;6.30;;;3.00;;
75890;SDS011;64571;47.512;19.054;2023-04-25T04:36:42;8.77;;;3.13;;
75890;SDS011;64571;47.512;19.054;2023-04-25T04:39:44;6.87;;;3.65;;
75890;SDS011;64571;47.512;19.054;2023-04-25T04:42:48;4.95;;;1.70;;
75890;SDS011;64571;47.512;19.054;2023-04-25T04:45:51;9.82;;;3.12;;
75890;SDS011;64571;47.512;19.054;2023-04-25T04:48:55;7.07;;;2.90;;
75890;SDS011;64571;47.512;19.054;2023-04-25T04:51:59;5.93;;;3.00;;
75890;SDS011;64571;47.512;19.054;2023-04-25T04:55:03;7.07;;;2.75;;
75890;SDS011;64571;47.512;19.054;2023-04-25T04:58:07;6.97;;;3.10;;
75890;SDS011;64571;47.512;19.054;2023-04-25T05:01:10;4.97;;;2.17;;
75890;SDS011;64571;47.512;19.054;2023-04-25T05:04:14;6.65;;;2.90;;
75890;SDS011;64571;47.512;19.054;2023-04-25T05:07:17;6.00;;;2.77;;
75890;SDS011;64571;47.512;19.054;2023-04-25T05:10:20;6.12;;;2.62;;
75890;SDS011;64571;47.512;19.054;2023-04-25T05:13:26;6.55;;;2.80;;
75890;SDS011;64571;47.512;19.054;2023-04-25T05:16:29;6.90;;;3.42;;
75890;SDS011;64571;47.512;19.054;2023-04-25T05:19:32;6.78;;;3.10;;
75890;SDS011;64571;47.512;19.054;2023-04-25T05:22:35;5.90;;;2.70;;
75890;SDS011;64571;47.512;19.054;2023-04-25T05:25:39;8.00;;;3.35;;
75890;SDS011;64571;47.512;19.054;2023-04-25T05:28:42;7.25;;;3.30;;
75890;SDS011;64571;47.512;19.054;2023-04-25T05:31:45;6.55;;;2.72;;
75890;SDS011;64571;47.512;19.054;2023-04-25T05:34:47;5.40;;;2.50;;
75890;SDS011;64571;47.512;19.054;2023-04-25T05:37:51;6.60;;;2.77;;
75890;SDS011;64571;47.512;19.054;2023-04-25T05:40:55;7.85;;;3.10;;
75890;SDS011;64571;47.512;19.054;2023-04-25T05:44:00;10.00;;;3.10;;
75890;SDS011;64571;47.512;19.054;2023-04-25T05:47:04;6.10;;;3.05;;
75890;SDS011;64571;47.512;19.054;2023-04-25T05:50:08;7.25;;;3.58;;
75890;SDS011;64571;47.512;19.054;2023-04-25T05:53:13;11.47;;;3.70;;
75890;SDS011;64571;47.512;19.054;2023-04-25T05:56:15;10.50;;;3.95;;
75890;SDS011;64571;47.512;19.054;2023-04-25T05:59:20;7.50;;;3.47;;
75890;SDS011;64571;47.512;19.054;2023-04-25T06:02:22;8.88;;;4.87;;
75890;SDS011;64571;47.512;19.054;2023-04-25T06:05:26;7.03;;;3.70;;
75890;SDS011;64571;47.512;19.054;2023-04-25T06:08:29;9.47;;;3.57;;
75890;SDS011;64571;47.512;19.054;2023-04-25T06:11:32;10.35;;;3.85;;
75890;SDS011;64571;47.512;19.054;2023-04-25T06:14:34;8.55;;;4.35;;
75890;SDS011;64571;47.512;19.054;2023-04-25T06:17:37;8.40;;;4.40;;
75890;SDS011;64571;47.512;19.054;2023-04-25T06:20:40;8.48;;;4.57;;
75890;SDS011;64571;47.512;19.054;2023-04-25T06:23:43;9.90;;;5.77;;
75890;SDS011;64571;47.512;19.054;2023-04-25T06:26:45;10.90;;;5.30;;
75890;SDS011;64571;47.512;19.054;2023-04-25T06:29:50;9.82;;;4.60;;
75890;SDS011;64571;47.512;19.054;2023-04-25T06:32:52;9.05;;;4.15;;
75890;SDS011;64571;47.512;19.054;2023-04-25T06:35:56;8.70;;;5.20;;
75890;SDS011;64571;47.512;19.054;2023-04-25T06:38:58;13.20;;;5.43;;
75890;SDS011;64571;47.512;19.054;2023-04-25T06:42:01;12.10;;;5.03;;
75890;SDS011;64571;47.512;19.054;2023-04-25T06:45:05;8.70;;;4.20;;
75890;SDS011;64571;47.512;19.054;2023-04-25T06:48:09;8.15;;;4.50;;
75890;SDS011;64571;47.512;19.054;2023-04-25T06:51:12;8.35;;;4.45;;
75890;SDS011;64571;47.512;19.054;2023-04-25T06:54:18;10.67;;;5.73;;
75890;SDS011;64571;47.512;19.054;2023-04-25T06:57:22;11.73;;;6.25;;
75890;SDS011;64571;47.512;19.054;2023-04-25T07:00:26;6.55;;;3.42;;
75890;SDS011;64571;47.512;19.054;2023-04-25T07:03:28;9.43;;;5.10;;
75890;SDS011;64571;47.512;19.054;2023-04-25T07:06:31;7.45;;;4.05;;
75890;SDS011;64571;47.512;19.054;2023-04-25T07:09:34;10.03;;;5.70;;
75890;SDS011;64571;47.512;19.054;2023-04-25T07:12:37;8.43;;;4.55;;
75890;SDS011;64571;47.512;19.054;2023-04-25T07:15:40;8.20;;;4.65;;
75890;SDS011;64571;47.512;19.054;2023-04-25T07:18:43;8.65;;;4.80;;
75890;SDS011;64571;47.512;19.054;2023-04-25T07:21:45;8.75;;;5.45;;
75890;SDS011;64571;47.512;19.054;2023-04-25T07:24:48;7.90;;;4.63;;
75890;SDS011;64571;47.512;19.054;2023-04-25T07:27:51;9.63;;;4.85;;
75890;SDS011;64571;47.512;19.054;2023-04-25T07:30:54;9.70;;;4.60;;
75890;SDS011;64571;47.512;19.054;2023-04-25T07:33:56;8.15;;;4.62;;
75890;SDS011;64571;47.512;19.054;2023-04-25T07:37:02;8.32;;;4.65;;
75890;SDS011;64571;47.512;19.054;2023-04-25T07:40:08;8.70;;;4.70;;
75890;SDS011;64571;47.512;19.054;2023-04-25T07:43:12;7.35;;;4.03;;
75890;SDS011;64571;47.512;19.054;2023-04-25T07:46:19;9.13;;;4.20;;
75890;SDS011;64571;47.512;19.054;2023-04-25T07:49:22;7.30;;;4.12;;
75890;SDS011;64571;47.512;19.054;2023-04-25T07:52:24;7.28;;;4.12;;
75890;SDS011;64571;47.512;19.054;2023-04-25T07:55:28;6.53;;;3.77;;
75890;SDS011;64571;47.512;19.054;2023-04-25T07:58:31;6.85;;;4.28;;
75890;SDS011;64571;47.512;19.054;2023-04-25T08:01:34;7.20;;;3.95;;
75890;SDS011;64571;47.512;19.054;2023-04-25T08:04:37;7.72;;;3.90;;
75890;SDS011;64571;47.512;19.054;2023-04-25T08:07:41;6.07;;;3.28;;
75890;SDS011;64571;47.512;19.054;2023-04-25T08:10:45;6.90;;;4.00;;
75890;SDS011;64571;47.512;19.054;2023-04-25T08:13:49;8.30;;;3.75;;
75890;SDS011;64571;47.512;19.054;2023-04-25T08:16:52;6.70;;;3.62;;
75890;SDS011;64571;47.512;19.054;2023-04-25T08:19:55;9.07;;;3.35;;
75890;SDS011;64571;47.512;19.054;2023-04-25T08:22:58;7.03;;;3.85;;
75890;SDS011;64571;47.512;19.054;2023-04-25T08:26:01;7.03;;;3.30;;
75890;SDS011;64571;47.512;19.054;2023-04-25T08:29:06;6.53;;;3.50;;
75890;SDS011;64571;47.512;19.054;2023-04-25T08:32:09;6.95;;;3.35;;
75890;SDS011;64571;47.512;19.054;2023-04-25T08:35:13;6.68;;;3.28;;
75890;SDS011;64571;47.512;19.054;2023-04-25T08:38:16;7.37;;;3.12;;
75890;SDS011;64571;47.512;19.054;2023-04-25T08:41:20;6.67;;;3.70;;
75890;SDS011;64571;47.512;19.054;2023-04-25T08:44:24;9.70;;;3.60;;
75890;SDS011;64571;47.512;19.054;2023-04-25T08:47:27;10.25;;;3.67;;
75890;SDS011;64571;47.512;19.054;2023-04-25T08:50:31;10.60;;;5.53;;
75890;SDS011;64571;47.512;19.054;2023-04-25T08:53:36;7.65;;;3.92;;
75890;SDS011;64571;47.512;19.054;2023-04-25T08:56:48;12.03;;;3.80;;
75890;SDS011;64571;47.512;19.054;2023-04-25T08:59:51;6.00;;;2.85;;
75890;SDS011;64571;47.512;19.054;2023-04-25T09:02:55;11.05;;;4.68;;
75890;SDS011;64571;47.512;19.054;2023-04-25T09:06:03;6.45;;;3.35;;
75890;SDS011;64571;47.512;19.054;2023-04-25T09:09:07;10.45;;;4.20;;
75890;SDS011;64571;47.512;19.054;2023-04-25T09:12:11;6.47;;;3.80;;
75890;SDS011;64571;47.512;19.054;2023-04-25T09:15:14;6.03;;;3.50;;
75890;SDS011;64571;47.512;19.054;2023-04-25T09:18:25;6.72;;;3.60;;
75890;SDS011;64571;47.512;19.054;2023-04-25T09:21:31;7.62;;;2.95;;
75890;SDS011;64571;47.512;19.054;2023-04-25T09:27:50;5.83;;;2.80;;
75890;SDS011;64571;47.512;19.054;2023-04-25T09:30:56;8.10;;;3.92;;
75890;SDS011;64571;47.512;19.054;2023-04-25T09:34:02;6.00;;;2.90;;
75890;SDS011;64571;47.512;19.054;2023-04-25T09:37:10;5.80;;;2.53;;
75890;SDS011;64571;47.512;19.054;2023-04-25T09:40:17;7.00;;;3.20;;
75890;SDS011;64571;47.512;19.054;2023-04-25T09:43:22;6.07;;;3.13;;
75890;SDS011;64571;47.512;19.054;2023-04-25T09:46:25;4.78;;;2.28;;
75890;SDS011;64571;47.512;19.054;2023-04-25T09:49:35;4.90;;;2.70;;
75890;SDS011;64571;47.512;19.054;2023-04-25T09:52:44;5.37;;;2.37;;
75890;SDS011;64571;47.512;19.054;2023-04-25T09:55:48;6.60;;;2.78;;
75890;SDS011;64571;47.512;19.054;2023-04-25T09:58:50;7.83;;;2.93;;
75890;SDS011;64571;47.512;19.054;2023-04-25T10:01:57;5.55;;;2.22;;
75890;SDS011;64571;47.512;19.054;2023-04-25T10:05:02;6.75;;;3.50;;
75890;SDS011;64571;47.512;19.054;2023-04-25T10:08:08;4.60;;;2.05;;
75890;SDS011;64571;47.512;19.054;2023-04-25T10:11:12;3.97;;;1.60;;
75890;SDS011;64571;47.512;19.054;2023-04-25T10:14:18;4.60;;;1.80;;
75890;SDS011;64571;47.512;19.054;2023-04-25T10:17:21;4.97;;;1.85;;
75890;SDS011;64571;47.512;19.054;2023-04-25T10:20:25;3.72;;;1.60;;
75890;SDS011;64571;47.512;19.054;2023-04-25T10:23:29;6.87;;;4.95;;
75890;SDS011;64571;47.512;19.054;2023-04-25T10:26:32;4.30;;;1.23;;
75890;SDS011;64571;47.512;19.054;2023-04-25T10:29:35;5.47;;;1.60;;
75890;SDS011;64571;47.512;19.054;2023-04-25T10:32:38;5.30;;;1.42;;
75890;SDS011;64571;47.512;19.054;2023-04-25T10:35:40;4.62;;;1.30;;
75890;SDS011;64571;47.512;19.054;2023-04-25T10:38:43;11.20;;;1.45;;
75890;SDS011;64571;47.512;19.054;2023-04-25T10:41:48;6.53;;;1.27;;
75890;SDS011;64571;47.512;19.054;2023-04-25T10:45:03;4.23;;;1.30;;
75890;SDS011;64571;47.512;19.054;2023-04-25T10:48:24;7.10;;;1.40;;
75890;SDS011;64571;47.512;19.054;2023-04-25T10:51:31;4.03;;;1.10;;
75890;SDS011;64571;47.512;19.054;2023-04-25T10:54:56;4.53;;;1.17;;
75890;SDS011;64571;47.512;19.054;2023-04-25T10:57:59;4.85;;;1.77;;
75890;SDS011;64571;47.512;19.054;2023-04-25T11:01:03;3.67;;;1.27;;
75890;SDS011;64571;47.512;19.054;2023-04-25T11:04:05;3.22;;;0.80;;
75890;SDS011;64571;47.512;19.054;2023-04-25T11:11:05;3.47;;;0.90;;
75890;SDS011;64571;47.512;19.054;2023-04-25T11:14:08;4.72;;;1.20;;
75890;SDS011;64571;47.512;19.054;2023-04-25T11:17:10;3.83;;;1.13;;
75890;SDS011;64571;47.512;19.054;2023-04-25T11:20:13;3.53;;;0.98;;
75890;SDS011;64571;47.512;19.054;2023-04-25T11:23:17;3.25;;;0.98;;
75890;SDS011;64571;47.512;19.054;2023-04-25T11:26:20;2.95;;;1.00;;
75890;SDS011;64571;47.512;19.054;2023-04-25T11:29:23;3.47;;;1.10;;
75890;SDS011;64571;47.512;19.054;2023-04-25T11:32:26;3.03;;;0.93;;
75890;SDS011;64571;47.512;19.054;2023-04-25T11:35:28;3.03;;;0.90;;
75890;SDS011;64571;47.512;19.054;2023-04-25T11:38:31;4.05;;;0.88;;
75890;SDS011;64571;47.512;19.054;2023-04-25T11:41:34;3.75;;;1.00;;
75890;SDS011;64571;47.512;19.054;2023-04-25T11:44:39;3.47;;;0.93;;
75890;SDS011;64571;47.512;19.054;2023-04-25T11:47:42;2.50;;;0.60;;
75890;SDS011;64571;47.512;19.054;2023-04-25T11:50:45;2.60;;;0.70;;
75890;SDS011;64571;47.512;19.054;2023-04-25T11:53:48;4.90;;;1.08;;
75890;SDS011;64571;47.512;19.054;2023-04-25T11:56:50;3.40;;;1.00;;
75890;SDS011;64571;47.512;19.054;2023-04-25T11:59:53;3.33;;;0.90;;
75890;SDS011;64571;47.512;19.054;2023-04-25T12:02:56;4.33;;;0.80;;
75890;SDS011;64571;47.512;19.054;2023-04-25T12:06:03;5.18;;;1.30;;
75890;SDS011;64571;47.512;19.054;2023-04-25T12:09:11;8.23;;;1.15;;
75890;SDS011;64571;47.512;19.054;2023-04-25T12:12:15;5.00;;;1.55;;
75890;SDS011;64571;47.512;19.054;2023-04-25T12:15:22;3.60;;;1.20;;
75890;SDS011;64571;47.512;19.054;2023-04-25T12:18:28;3.43;;;1.10;;
75890;SDS011;64571;47.512;19.054;2023-04-25T12:21:31;3.78;;;1.10;;
75890;SDS011;64571;47.512;19.054;2023-04-25T12:24:39;4.22;;;1.40;;
75890;SDS011;64571;47.512;19.054;2023-04-25T12:27:42;4.43;;;1.10;;
75890;SDS011;64571;47.512;19.054;2023-04-25T12:34:01;3.70;;;1.73;;
75890;SDS011;64571;47.512;19.054;2023-04-25T12:37:04;4.22;;;1.48;;
75890;SDS011;64571;47.512;19.054;2023-04-25T12:40:07;6.35;;;1.20;;
75890;SDS011;64571;47.512;19.054;2023-04-25T12:43:11;4.10;;;1.20;;
75890;SDS011;64571;47.512;19.054;2023-04-25T12:46:13;4.22;;;1.17;;
75890;SDS011;64571;47.512;19.054;2023-04-25T12:49:16;4.03;;;1.40;;
75890;SDS011;64571;47.512;19.054;2023-04-25T12:52:20;4.30;;;1.27;;
75890;SDS011;64571;47.512;19.054;2023-04-25T12:55:23;4.50;;;1.20;;
75890;SDS011;64571;47.512;19.054;2023-04-25T12:58:25;4.00;;;1.52;;
75890;SDS011;64571;47.512;19.054;2023-04-25T13:01:28;3.45;;;1.15;;
75890;SDS011;64571;47.512;19.054;2023-04-25T13:04:31;4.90;;;1.60;;
75890;SDS011;64571;47.512;19.054;2023-04-25T13:07:34;4.03;;;1.48;;
75890;SDS011;64571;47.512;19.054;2023-04-25T13:10:37;3.87;;;1.70;;
75890;SDS011;64571;47.512;19.054;2023-04-25T13:13:41;3.70;;;1.60;;
75890;SDS011;64571;47.512;19.054;2023-04-25T13:16:44;4.95;;;1.70;;
75890;SDS011;64571;47.512;19.054;2023-04-25T13:19:48;7.80;;;1.57;;
75890;SDS011;64571;47.512;19.054;2023-04-25T13:22:50;5.62;;;2.55;;
75890;SDS011;64571;47.512;19.054;2023-04-25T13:25:53;4.10;;;1.80;;
75890;SDS011;64571;47.512;19.054;2023-04-25T13:28:57;4.18;;;1.67;;
75890;SDS011;64571;47.512;19.054;2023-04-25T13:32:00;4.00;;;1.62;;
75890;SDS011;64571;47.512;19.054;2023-04-25T13:35:03;4.20;;;1.60;;
75890;SDS011;64571;47.512;19.054;2023-04-25T13:38:12;3.75;;;1.58;;
75890;SDS011;64571;47.512;19.054;2023-04-25T13:41:15;5.30;;;2.08;;
75890;SDS011;64571;47.512;19.054;2023-04-25T13:44:21;6.75;;;1.70;;
75890;SDS011;64571;47.512;19.054;2023-04-25T13:47:23;4.93;;;1.83;;
75890;SDS011;64571;47.512;19.054;2023-04-25T13:50:27;4.33;;;1.80;;
75890;SDS011;64571;47.512;19.054;2023-04-25T13:53:30;5.43;;;2.08;;
75890;SDS011;64571;47.512;19.054;2023-04-25T13:56:33;6.20;;;1.83;;
75890;SDS011;64571;47.512;19.054;2023-04-25T13:59:35;4.20;;;1.85;;
75890;SDS011;64571;47.512;19.054;2023-04-25T14:02:38;4.15;;;1.40;;
75890;SDS011;64571;47.512;19.054;2023-04-25T14:05:41;4.37;;;1.90;;
75890;SDS011;64571;47.512;19.054;2023-04-25T14:08:43;3.50;;;1.30;;
75890;SDS011;64571;47.512;19.054;2023-04-25T14:11:46;3.87;;;1.58;;
75890;SDS011;64571;47.512;19.054;2023-04-25T14:14:48;4.80;;;1.60;;
75890;SDS011;64571;47.512;19.054;2023-04-25T14:17:51;3.92;;;1.50;;
75890;SDS011;64571;47.512;19.054;2023-04-25T14:20:54;4.13;;;1.70;;
75890;SDS011;64571;47.512;19.054;2023-04-25T14:23:56;4.00;;;1.60;;
75890;SDS011;64571;47.512;19.054;2023-04-25T14:26:59;4.30;;;1.77;;
75890;SDS011;64571;47.512;19.054;2023-04-25T14:30:01;3.95;;;1.60;;
75890;SDS011;64571;47.512;19.054;2023-04-25T14:33:04;4.25;;;1.67;;
75890;SDS011;64571;47.512;19.054;2023-04-25T14:36:07;4.47;;;1.63;;
75890;SDS011;64571;47.512;19.054;2023-04-25T14:39:10;7.03;;;3.33;;
75890;SDS011;64571;47.512;19.054;2023-04-25T14:42:13;5.15;;;2.10;;
75890;SDS011;64571;47.512;19.054;2023-04-25T14:45:15;4.78;;;1.85;;
75890;SDS011;64571;47.512;19.054;2023-04-25T14:48:18;5.97;;;1.87;;
75890;SDS011;64571;47.512;19.054;2023-04-25T14:51:21;4.97;;;1.83;;
75890;SDS011;64571;47.512;19.054;2023-04-25T14:54:24;5.60;;;1.55;;
75890;SDS011;64571;47.512;19.054;2023-04-25T14:57:27;5.12;;;1.67;;
75890;SDS011;64571;47.512;19.054;2023-04-25T15:00:30;3.95;;;1.60;;
75890;SDS011;64571;47.512;19.054;2023-04-25T15:03:33;4.25;;;1.50;;
75890;SDS011;64571;47.512;19.054;2023-04-25T15:06:36;6.67;;;1.40;;
75890;SDS011;64571;47.512;19.054;2023-04-25T15:09:39;5.03;;;1.50;;
75890;SDS011;64571;47.512;19.054;2023-04-25T15:12:42;6.15;;;2.25;;
75890;SDS011;64571;47.512;19.054;2023-04-25T15:15:48;3.87;;;1.58;;
75890;SDS011;64571;47.512;19.054;2023-04-25T15:18:53;5.40;;;2.72;;
75890;SDS011;64571;47.512;19.054;2023-04-25T15:21:56;7.07;;;1.97;;
75890;SDS011;64571;47.512;19.054;2023-04-25T15:24:58;8.43;;;2.10;;
75890;SDS011;64571;47.512;19.054;2023-04-25T15:28:01;7.00;;;1.62;;
75890;SDS011;64571;47.512;19.054;2023-04-25T15:31:03;3.83;;;1.65;;
75890;SDS011;64571;47.512;19.054;2023-04-25T15:34:06;4.10;;;1.67;;
75890;SDS011;64571;47.512;19.054;2023-04-25T15:37:09;7.17;;;1.70;;
75890;SDS011;64571;47.512;19.054;2023-04-25T15:40:13;4.72;;;1.80;;
75890;SDS011;64571;47.512;19.054;2023-04-25T15:43:17;6.87;;;1.90;;
75890;SDS011;64571;47.512;19.054;2023-04-25T15:46:19;7.30;;;1.80;;
75890;SDS011;64571;47.512;19.054;2023-04-25T15:49:24;7.43;;;2.20;;
75890;SDS011;64571;47.512;19.054;2023-04-25T15:52:27;5.53;;;2.30;;
75890;SDS011;64571;47.512;19.054;2023-04-25T15:55:30;4.75;;;2.10;;
75890;SDS011;64571;47.512;19.054;2023-04-25T15:58:33;5.37;;;2.47;;
75890;SDS011;64571;47.512;19.054;2023-04-25T16:01:35;8.38;;;2.70;;
75890;SDS011;64571;47.512;19.054;2023-04-25T16:04:39;5.55;;;2.42;;
75890;SDS011;64571;47.512;19.054;2023-04-25T16:07:42;5.60;;;2.50;;
75890;SDS011;64571;47.512;19.054;2023-04-25T16:10:46;5.97;;;2.58;;
75890;SDS011;64571;47.512;19.054;2023-04-25T16:13:49;6.37;;;2.72;;
75890;SDS011;64571;47.512;19.054;2023-04-25T16:16:52;7.53;;;2.87;;
75890;SDS011;64571;47.512;19.054;2023-04-25T16:19:55;7.00;;;3.45;;
75890;SDS011;64571;47.512;19.054;2023-04-25T16:22:58;6.83;;;2.90;;
75890;SDS011;64571;47.512;19.054;2023-04-25T16:26:01;5.60;;;2.80;;
75890;SDS011;64571;47.512;19.054;2023-04-25T16:29:04;5.68;;;2.37;;
75890;SDS011;64571;47.512;19.054;2023-04-25T16:32:07;6.40;;;2.60;;
75890;SDS011;64571;47.512;19.054;2023-04-25T16:35:10;6.93;;;2.70;;
75890;SDS011;64571;47.512;19.054;2023-04-25T16:38:13;6.13;;;2.40;;
75890;SDS011;64571;47.512;19.054;2023-04-25T16:41:15;6.00;;;2.80;;
75890;SDS011;64571;47.512;19.054;2023-04-25T16:44:18;6.78;;;3.28;;
75890;SDS011;64571;47.512;19.054;2023-04-25T16:47:21;6.60;;;2.72;;
75890;SDS011;64571;47.512;19.054;2023-04-25T16:50:23;5.75;;;3.35;;
75890;SDS011;64571;47.512;19.054;2023-04-25T16:53:26;6.40;;;3.00;;
75890;SDS011;64571;47.512;19.054;2023-04-25T16:56:28;10.05;;;3.95;;
75890;SDS011;64571;47.512;19.054;2023-04-25T16:59:31;6.87;;;3.30;;
75890;SDS011;64571;47.512;19.054;2023-04-25T17:02:33;5.43;;;2.72;;
75890;SDS011;64571;47.512;19.054;2023-04-25T17:05:36;7.25;;;3.37;;
75890;SDS011;64571;47.512;19.054;2023-04-25T17:08:39;8.07;;;3.27;;
75890;SDS011;64571;47.512;19.054;2023-04-25T17:11:42;6.95;;;3.62;;
75890;SDS011;64571;47.512;19.054;2023-04-25T17:14:44;7.43;;;3.35;;
75890;SDS011;64571;47.512;19.054;2023-04-25T17:17:47;8.70;;;3.50;;
75890;SDS011;64571;47.512;19.054;2023-04-25T17:20:50;8.45;;;3.62;;
75890;SDS011;64571;47.512;19.054;2023-04-25T17:23:53;6.00;;;3.10;;
75890;SDS011;64571;47.512;19.054;2023-04-25T17:26:55;8.73;;;3.53;;
75890;SDS011;64571;47.512;19.054;2023-04-25T17:29:58;7.85;;;3.25;;
75890;SDS011;64571;47.512;19.054;2023-04-25T17:33:01;6.87;;;3.05;;
75890;SDS011;64571;47.512;19.054;2023-04-25T17:36:05;12.07;;;3.55;;
75890;SDS011;64571;47.512;19.054;2023-04-25T17:39:08;6.00;;;3.17;;
75890;SDS011;64571;47.512;19.054;2023-04-25T17:42:12;6.68;;;3.30;;
75890;SDS011;64571;47.512;19.054;2023-04-25T17:45:15;6.70;;;3.17;;
75890;SDS011;64571;47.512;19.054;2023-04-25T17:48:18;6.22;;;3.53;;
75890;SDS011;64571;47.512;19.054;2023-04-25T17:51:23;6.80;;;3.17;;
75890;SDS011;64571;47.512;19.054;2023-04-25T17:54:26;5.93;;;3.03;;
75890;SDS011;64571;47.512;19.054;2023-04-25T17:57:29;7.82;;;3.40;;
75890;SDS011;64571;47.512;19.054;2023-04-25T18:00:32;7.32;;;3.87;;
75890;SDS011;64571;47.512;19.054;2023-04-25T18:03:35;6.72;;;3.33;;
75890;SDS011;64571;47.512;19.054;2023-04-25T18:06:41;9.30;;;3.55;;
75890;SDS011;64571;47.512;19.054;2023-04-25T18:09:43;6.97;;;3.37;;
75890;SDS011;64571;47.512;19.054;2023-04-25T18:12:46;7.37;;;3.30;;
75890;SDS011;64571;47.512;19.054;2023-04-25T18:15:48;7.37;;;3.47;;
75890;SDS011;64571;47.512;19.054;2023-04-25T18:18:52;8.10;;;3.58;;